createdAt,value
2022-10-23T00:00:26.562Z,0.00
2022-10-23T00:01:26.503Z,0.00
2022-10-23T00:02:26.549Z,0.00
2022-10-23T00:03:26.469Z,0.00
2022-10-23T00:04:26.467Z,0.00
2022-10-23T00:05:26.449Z,0.00
2022-10-23T00:06:26.454Z,0.00
2022-10-23T00:07:26.511Z,0.00
2022-10-23T00:08:26.430Z,0.00
2022-10-23T00:09:26.415Z,0.00
2022-10-23T00:10:26.391Z,0.00
2022-10-23T00:11:26.380Z,0.00
2022-10-23T00:12:26.370Z,0.00
2022-10-23T00:13:26.380Z,0.00
2022-10-23T00:14:26.353Z,0.00
2022-10-23T00:15:26.338Z,0.00
2022-10-23T00:16:26.328Z,0.00
2022-10-23T00:17:26.319Z,0.00
2022-10-23T00:18:26.327Z,0.00
2022-10-23T00:19:26.303Z,0.00
2022-10-23T00:20:26.285Z,0.00
2022-10-23T00:21:26.278Z,0.00
2022-10-23T00:22:26.264Z,0.00
2022-10-23T00:23:26.279Z,0.00
2022-10-23T00:24:26.238Z,0.00
2022-10-23T00:25:26.232Z,0.00
2022-10-23T00:26:26.216Z,0.00
2022-10-23T00:27:26.209Z,0.00
2022-10-23T00:28:26.221Z,0.00
2022-10-23T00:29:26.192Z,0.00
2022-10-23T00:30:26.173Z,0.00
2022-10-23T00:31:26.168Z,0.00
2022-10-23T00:32:26.211Z,0.00
2022-10-23T00:33:26.175Z,0.00
2022-10-23T00:34:26.131Z,0.00
2022-10-23T00:35:26.122Z,0.00
2022-10-23T00:36:26.111Z,0.00
2022-10-23T00:37:26.103Z,0.00
2022-10-23T00:38:33.164Z,0.00
2022-10-23T00:39:26.080Z,0.00
2022-10-23T00:40:26.066Z,0.00
2022-10-23T00:41:26.067Z,0.00
2022-10-23T00:42:26.044Z,0.00
2022-10-23T00:43:26.046Z,0.00
2022-10-23T00:44:26.027Z,0.00
2022-10-23T00:45:26.019Z,0.00
2022-10-23T00:46:26.002Z,0.00
2022-10-23T00:47:26.005Z,0.00
2022-10-23T00:48:25.986Z,0.00
2022-10-23T00:49:25.988Z,0.00
2022-10-23T00:50:25.969Z,0.00
2022-10-23T00:51:25.961Z,0.00
2022-10-23T00:52:25.938Z,0.00
2022-10-23T00:53:25.928Z,0.00
2022-10-23T00:54:25.949Z,0.00
2022-10-23T00:55:25.906Z,0.00
2022-10-23T00:56:25.897Z,0.00
2022-10-23T00:57:25.980Z,0.00
2022-10-23T00:58:25.871Z,0.00
2022-10-23T00:59:25.874Z,0.00
2022-10-23T01:00:25.850Z,0.00
2022-10-23T01:01:26.001Z,0.00
2022-10-23T01:02:25.912Z,0.00
2022-10-23T01:03:25.819Z,0.00
2022-10-23T01:04:25.822Z,0.00
2022-10-23T01:05:25.798Z,0.00
2022-10-23T01:06:25.785Z,0.00
2022-10-23T01:07:25.776Z,0.00
2022-10-23T01:08:25.763Z,0.00
2022-10-23T01:09:25.764Z,0.00
2022-10-23T01:10:25.757Z,0.00
2022-10-23T01:11:25.733Z,0.00
2022-10-23T01:12:25.719Z,0.00
2022-10-23T01:13:25.710Z,0.00
2022-10-23T01:14:25.707Z,0.00
2022-10-23T01:15:25.693Z,0.00
2022-10-23T01:16:25.677Z,0.00
2022-10-23T01:17:25.670Z,0.00
2022-10-23T01:18:25.665Z,0.00
2022-10-23T01:19:25.645Z,0.00
2022-10-23T01:20:25.637Z,0.00
2022-10-23T01:21:25.627Z,0.00
2022-10-23T01:23:25.613Z,0.00
2022-10-23T01:24:25.592Z,0.00
2022-10-23T01:25:25.584Z,0.00
2022-10-23T01:26:25.585Z,0.00
2022-10-23T01:27:25.569Z,0.00
2022-10-23T01:28:25.557Z,0.00
2022-10-23T01:29:25.537Z,0.00
2022-10-23T01:30:25.526Z,0.00
2022-10-23T01:31:25.516Z,0.00
2022-10-23T01:32:25.503Z,0.00
2022-10-23T01:33:25.504Z,0.00
2022-10-23T01:34:25.483Z,0.00
2022-10-23T01:35:25.473Z,0.00
2022-10-23T01:36:25.462Z,0.00
2022-10-23T01:37:25.452Z,0.00
2022-10-23T01:38:25.481Z,0.00
2022-10-23T01:39:25.429Z,0.00
2022-10-23T01:40:25.422Z,0.00
2022-10-23T01:41:25.408Z,0.00
2022-10-23T01:42:25.413Z,0.00
2022-10-23T01:43:25.561Z,0.00
2022-10-23T01:44:25.375Z,0.00
2022-10-23T01:45:25.365Z,0.00
2022-10-23T01:46:25.352Z,0.00
2022-10-23T01:47:25.347Z,0.00
2022-10-23T01:48:25.342Z,0.00
2022-10-23T01:49:25.322Z,0.00
2022-10-23T01:50:25.314Z,0.00
2022-10-23T01:51:25.301Z,0.00
2022-10-23T01:52:25.291Z,0.00
2022-10-23T01:53:25.290Z,0.00
2022-10-23T01:54:25.281Z,0.00
2022-10-23T01:55:25.258Z,0.00
2022-10-23T01:56:25.244Z,0.00
2022-10-23T01:57:25.235Z,0.00
2022-10-23T01:58:25.255Z,0.00
2022-10-23T01:59:25.217Z,0.00
2022-10-23T02:00:25.202Z,0.00
2022-10-23T02:01:25.339Z,0.00
2022-10-23T02:02:25.276Z,0.00
2022-10-23T02:03:25.181Z,0.00
2022-10-23T02:04:25.160Z,0.00
2022-10-23T02:05:25.149Z,0.00
2022-10-23T02:06:25.136Z,0.00
2022-10-23T02:07:25.128Z,0.00
2022-10-23T02:08:25.124Z,0.00
2022-10-23T02:09:25.109Z,0.00
2022-10-23T02:10:25.094Z,0.00
2022-10-23T02:11:25.094Z,0.00
2022-10-23T02:12:25.073Z,0.00
2022-10-23T02:13:25.081Z,0.00
2022-10-23T02:14:25.071Z,0.00
2022-10-23T02:15:25.044Z,0.00
2022-10-23T02:16:25.036Z,0.00
2022-10-23T02:17:25.031Z,0.00
2022-10-23T02:18:25.030Z,0.00
2022-10-23T02:19:25.003Z,0.00
2022-10-23T02:20:24.996Z,0.00
2022-10-23T02:21:24.977Z,0.00
2022-10-23T02:22:24.970Z,0.00
2022-10-23T02:23:24.966Z,0.00
2022-10-23T02:24:24.943Z,0.00
2022-10-23T02:25:24.933Z,0.00
2022-10-23T02:26:24.921Z,0.00
2022-10-23T02:27:24.925Z,0.00
2022-10-23T02:28:24.899Z,0.00
2022-10-23T02:29:24.891Z,0.00
2022-10-23T02:30:24.955Z,0.00
2022-10-23T02:31:24.868Z,0.00
2022-10-23T02:32:24.869Z,0.00
2022-10-23T02:33:24.878Z,0.00
2022-10-23T02:34:24.834Z,0.00
2022-10-23T02:35:24.832Z,0.00
2022-10-23T02:36:24.813Z,0.00
2022-10-23T02:37:24.819Z,0.00
2022-10-23T02:38:24.791Z,0.00
2022-10-23T02:39:24.783Z,0.00
2022-10-23T02:40:24.769Z,0.00
2022-10-23T02:41:24.763Z,0.00
2022-10-23T02:42:24.761Z,0.00
2022-10-23T02:43:24.740Z,0.00
2022-10-23T02:44:24.727Z,0.00
2022-10-23T02:45:24.718Z,0.00
2022-10-23T02:46:24.745Z,0.00
2022-10-23T02:47:24.696Z,0.00
2022-10-23T02:48:24.685Z,0.00
2022-10-23T02:49:24.704Z,0.00
2022-10-23T02:50:24.663Z,0.00
2022-10-23T02:51:24.653Z,0.00
2022-10-23T02:52:24.652Z,0.00
2022-10-23T02:53:24.631Z,0.00
2022-10-23T02:54:24.618Z,0.00
2022-10-23T02:55:24.608Z,0.00
2022-10-23T02:56:24.596Z,0.00
2022-10-23T02:57:24.597Z,0.00
2022-10-23T02:58:24.576Z,0.00
2022-10-23T02:59:24.566Z,0.00
2022-10-23T03:00:24.553Z,0.00
2022-10-23T03:01:24.613Z,0.00
2022-10-23T03:02:25.806Z,0.00
2022-10-23T03:03:24.537Z,0.00
2022-10-23T03:04:24.529Z,0.00
2022-10-23T03:05:24.501Z,0.00
2022-10-23T03:06:24.489Z,0.00
2022-10-23T03:07:24.488Z,0.00
2022-10-23T03:08:24.467Z,0.00
2022-10-23T03:09:24.473Z,0.00
2022-10-23T03:10:24.446Z,0.00
2022-10-23T03:11:24.438Z,0.00
2022-10-23T03:12:24.440Z,0.00
2022-10-23T03:13:24.417Z,0.00
2022-10-23T03:14:24.403Z,0.00
2022-10-23T03:15:24.403Z,0.00
2022-10-23T03:16:24.383Z,0.00
2022-10-23T03:17:24.385Z,0.00
2022-10-23T03:18:24.380Z,0.00
2022-10-23T03:19:24.350Z,0.00
2022-10-23T03:20:24.338Z,0.00
2022-10-23T03:21:24.330Z,0.00
2022-10-23T03:22:24.325Z,0.00
2022-10-23T03:23:24.308Z,0.00
2022-10-23T03:24:24.297Z,0.00
2022-10-23T03:25:24.293Z,0.00
2022-10-23T03:26:24.273Z,0.00
2022-10-23T03:27:24.321Z,0.00
2022-10-23T03:28:24.256Z,0.00
2022-10-23T03:29:24.242Z,0.00
2022-10-23T03:30:24.233Z,0.00
2022-10-23T03:31:24.223Z,0.00
2022-10-23T03:32:24.221Z,0.00
2022-10-23T03:33:24.199Z,0.00
2022-10-23T03:34:24.204Z,0.00
2022-10-23T03:35:24.179Z,0.00
2022-10-23T03:36:24.165Z,0.00
2022-10-23T03:37:24.173Z,0.00
2022-10-23T03:38:24.145Z,0.00
2022-10-23T03:39:24.133Z,0.00
2022-10-23T03:40:24.124Z,0.00
2022-10-23T03:41:24.112Z,0.00
2022-10-23T03:42:24.119Z,0.00
2022-10-23T03:43:24.089Z,0.00
2022-10-23T03:44:24.094Z,0.00
2022-10-23T03:45:24.068Z,0.00
2022-10-23T03:46:24.067Z,0.00
2022-10-23T03:47:24.048Z,0.00
2022-10-23T03:48:24.046Z,0.00
2022-10-23T03:49:24.029Z,0.00
2022-10-23T03:50:24.032Z,0.00
2022-10-23T03:51:24.017Z,0.00
2022-10-23T03:53:23.983Z,0.00
2022-10-23T03:54:23.999Z,0.00
2022-10-23T03:55:23.963Z,0.00
2022-10-23T03:56:23.963Z,0.00
2022-10-23T03:57:23.940Z,0.00
2022-10-23T03:58:23.926Z,0.00
2022-10-23T03:59:23.918Z,0.00
2022-10-23T04:00:23.907Z,0.00
2022-10-23T04:01:24.003Z,0.00
2022-10-23T04:02:23.945Z,0.00
2022-10-23T04:03:23.875Z,0.00
2022-10-23T04:04:23.866Z,0.00
2022-10-23T04:05:23.857Z,0.00
2022-10-23T04:06:23.857Z,0.00
2022-10-23T04:07:23.841Z,0.00
2022-10-23T04:08:23.817Z,0.00
2022-10-23T04:09:23.819Z,0.00
2022-10-23T04:10:23.796Z,0.00
2022-10-23T04:11:23.787Z,0.00
2022-10-23T04:12:23.792Z,0.00
2022-10-23T04:13:23.769Z,0.00
2022-10-23T04:14:23.754Z,0.00
2022-10-23T04:15:23.744Z,0.00
2022-10-23T04:16:23.736Z,0.00
2022-10-23T04:17:23.771Z,0.00
2022-10-23T04:18:23.710Z,0.00
2022-10-23T04:19:23.704Z,0.00
2022-10-23T04:20:23.688Z,0.00
2022-10-23T04:21:23.682Z,0.00
2022-10-23T04:22:26.080Z,0.00
2022-10-23T04:23:23.663Z,0.00
2022-10-23T04:24:23.648Z,0.00
2022-10-23T04:25:23.635Z,0.00
2022-10-23T04:26:23.624Z,0.00
2022-10-23T04:27:23.627Z,0.00
2022-10-23T04:28:23.602Z,0.00
2022-10-23T04:29:23.591Z,0.00
2022-10-23T04:30:23.579Z,0.00
2022-10-23T04:31:23.581Z,0.00
2022-10-23T04:32:23.559Z,0.00
2022-10-23T04:33:23.548Z,0.00
2022-10-23T04:34:23.538Z,0.00
2022-10-23T04:35:23.524Z,0.00
2022-10-23T04:36:23.525Z,0.00
2022-10-23T04:37:23.503Z,0.00
2022-10-23T04:38:23.514Z,0.00
2022-10-23T04:39:23.483Z,0.00
2022-10-23T04:40:23.482Z,0.00
2022-10-23T04:41:23.474Z,0.00
2022-10-23T04:42:23.489Z,0.00
2022-10-23T04:43:23.442Z,0.00
2022-10-23T04:44:23.430Z,0.00
2022-10-23T04:45:23.416Z,0.00
2022-10-23T04:46:23.425Z,0.00
2022-10-23T04:47:23.397Z,0.00
2022-10-23T04:48:25.624Z,0.00
2022-10-23T04:49:24.373Z,0.00
2022-10-23T04:50:23.372Z,0.00
2022-10-23T04:51:23.368Z,0.00
2022-10-23T04:52:23.346Z,0.00
2022-10-23T04:53:23.333Z,0.00
2022-10-23T04:54:23.338Z,0.00
2022-10-23T04:55:23.309Z,0.00
2022-10-23T04:56:23.314Z,0.00
2022-10-23T04:57:23.287Z,0.00
2022-10-23T04:58:23.277Z,0.00
2022-10-23T04:59:23.266Z,0.00
2022-10-23T05:00:23.259Z,0.00
2022-10-23T05:01:23.451Z,0.00
2022-10-23T05:02:23.233Z,0.00
2022-10-23T05:03:23.222Z,0.00
2022-10-23T05:04:23.214Z,0.00
2022-10-23T05:05:23.203Z,0.00
2022-10-23T05:06:23.206Z,0.00
2022-10-23T05:07:23.231Z,0.00
2022-10-23T05:08:23.169Z,0.00
2022-10-23T05:09:23.155Z,0.00
2022-10-23T05:10:23.163Z,0.00
2022-10-23T05:11:23.151Z,0.00
2022-10-23T05:12:23.123Z,0.00
2022-10-23T05:13:23.112Z,0.00
2022-10-23T05:14:23.135Z,0.00
2022-10-23T05:15:23.093Z,0.00
2022-10-23T05:16:23.094Z,0.00
2022-10-23T05:17:23.074Z,0.00
2022-10-23T05:18:23.061Z,0.00
2022-10-23T05:19:24.342Z,0.00
2022-10-23T05:20:23.042Z,0.00
2022-10-23T05:21:23.036Z,0.00
2022-10-23T05:22:23.015Z,0.00
2022-10-23T05:23:23.003Z,0.00
2022-10-23T05:24:22.995Z,0.00
2022-10-23T05:25:22.979Z,0.00
2022-10-23T05:26:22.999Z,0.00
2022-10-23T05:27:22.967Z,0.00
2022-10-23T05:28:22.950Z,0.00
2022-10-23T05:29:22.936Z,0.00
2022-10-23T05:30:22.927Z,0.00
2022-10-23T05:31:22.928Z,0.00
2022-10-23T05:32:22.914Z,0.00
2022-10-23T05:33:22.893Z,0.00
2022-10-23T05:34:22.885Z,0.00
2022-10-23T05:35:22.877Z,0.00
2022-10-23T05:36:22.875Z,0.00
2022-10-23T05:37:22.849Z,0.00
2022-10-23T05:38:22.846Z,0.00
2022-10-23T05:39:22.828Z,0.00
2022-10-23T05:40:22.819Z,5.62
2022-10-23T05:41:22.825Z,5.62
2022-10-23T05:42:22.815Z,5.62
2022-10-23T05:43:22.784Z,5.62
2022-10-23T05:44:22.775Z,5.62
2022-10-23T05:45:22.763Z,5.62
2022-10-23T05:46:22.762Z,5.62
2022-10-23T05:47:22.742Z,5.62
2022-10-23T05:48:33.906Z,5.62
2022-10-23T05:49:23.718Z,5.62
2022-10-23T05:50:22.713Z,5.62
2022-10-23T05:51:22.706Z,11.25
2022-10-23T05:52:22.687Z,11.25
2022-10-23T05:53:22.676Z,11.25
2022-10-23T05:54:22.676Z,16.88
2022-10-23T05:55:22.654Z,16.88
2022-10-23T05:56:22.655Z,16.88
2022-10-23T05:57:22.633Z,22.50
2022-10-23T05:58:22.643Z,22.50
2022-10-23T05:59:23.288Z,28.12
2022-10-23T06:00:22.600Z,28.12
2022-10-23T06:01:22.685Z,28.12
2022-10-23T06:02:22.624Z,33.75
2022-10-23T06:03:22.565Z,33.75
2022-10-23T06:04:22.556Z,33.75
2022-10-23T06:05:22.544Z,33.75
2022-10-23T06:06:22.541Z,33.75
2022-10-23T06:07:22.524Z,33.75
2022-10-23T06:08:22.513Z,39.38
2022-10-23T06:09:22.502Z,39.38
2022-10-23T06:10:22.492Z,45.00
2022-10-23T06:11:22.496Z,50.62
2022-10-23T06:12:22.473Z,50.62
2022-10-23T06:13:22.460Z,56.25
2022-10-23T06:14:22.465Z,56.25
2022-10-23T06:15:22.433Z,61.88
2022-10-23T06:16:22.434Z,61.88
2022-10-23T06:17:22.411Z,67.50
2022-10-23T06:18:22.404Z,67.50
2022-10-23T06:19:22.390Z,73.12
2022-10-23T06:20:26.582Z,78.75
2022-10-23T06:21:23.386Z,78.75
2022-10-23T06:22:22.360Z,84.38
2022-10-23T06:23:22.346Z,106.88
2022-10-23T06:24:22.337Z,129.38
2022-10-23T06:25:22.325Z,129.38
2022-10-23T06:26:22.326Z,118.12
2022-10-23T06:27:22.305Z,123.75
2022-10-23T06:28:22.293Z,123.75
2022-10-23T06:29:22.285Z,123.75
2022-10-23T06:30:22.303Z,118.12
2022-10-23T06:31:22.280Z,135.00
2022-10-23T06:32:22.251Z,151.88
2022-10-23T06:33:22.239Z,157.50
2022-10-23T06:34:22.234Z,163.12
2022-10-23T06:35:22.244Z,174.38
2022-10-23T06:36:22.225Z,185.62
2022-10-23T06:37:22.195Z,219.38
2022-10-23T06:38:30.093Z,208.12
2022-10-23T06:39:22.171Z,213.75
2022-10-23T06:40:22.163Z,292.50
2022-10-23T06:41:22.163Z,360.00
2022-10-23T06:42:22.141Z,371.25
2022-10-23T06:43:22.131Z,421.88
2022-10-23T06:44:22.143Z,405.00
2022-10-23T06:45:22.110Z,500.62
2022-10-23T06:46:22.125Z,500.62
2022-10-23T06:47:22.088Z,438.75
2022-10-23T06:48:22.076Z,483.75
2022-10-23T06:49:22.066Z,450.00
2022-10-23T06:50:22.060Z,427.50
2022-10-23T06:51:22.060Z,348.75
2022-10-23T06:52:45.388Z,393.75
2022-10-23T06:53:23.030Z,393.75
2022-10-23T06:54:22.013Z,230.62
2022-10-23T06:55:21.999Z,213.75
2022-10-23T06:56:22.002Z,281.25
2022-10-23T06:57:21.977Z,326.25
2022-10-23T06:58:21.971Z,371.25
2022-10-23T06:59:21.958Z,393.75
2022-10-23T07:00:21.946Z,331.88
2022-10-23T07:01:22.091Z,360.00
2022-10-23T07:02:21.940Z,343.12
2022-10-23T07:03:21.913Z,348.75
2022-10-23T07:04:21.902Z,405.00
2022-10-23T07:05:21.889Z,399.38
2022-10-23T07:06:21.891Z,388.12
2022-10-23T07:07:21.869Z,433.12
2022-10-23T07:08:21.860Z,506.25
2022-10-23T07:09:21.845Z,534.38
2022-10-23T07:10:21.837Z,686.25
2022-10-23T07:11:21.837Z,489.38
2022-10-23T07:12:21.814Z,472.50
2022-10-23T07:13:21.830Z,579.38
2022-10-23T07:14:21.797Z,770.62
2022-10-23T07:15:21.782Z,736.88
2022-10-23T07:16:21.786Z,708.75
2022-10-23T07:17:21.782Z,826.88
2022-10-23T07:18:21.857Z,894.38
2022-10-23T07:19:21.767Z,922.50
2022-10-23T07:20:21.728Z,1035.00
2022-10-23T07:21:21.727Z,995.62
2022-10-23T07:22:21.710Z,871.88
2022-10-23T07:23:21.695Z,888.75
2022-10-23T07:24:21.686Z,714.38
2022-10-23T07:25:21.690Z,753.75
2022-10-23T07:26:21.674Z,748.12
2022-10-23T07:27:21.652Z,680.62
2022-10-23T07:28:21.644Z,725.62
2022-10-23T07:29:21.632Z,669.38
2022-10-23T07:30:21.649Z,663.75
2022-10-23T07:31:24.355Z,686.25
2022-10-23T07:32:22.601Z,770.62
2022-10-23T07:33:21.590Z,793.12
2022-10-23T07:34:21.624Z,804.38
2022-10-23T07:35:21.571Z,725.62
2022-10-23T07:36:21.665Z,686.25
2022-10-23T07:37:21.547Z,646.88
2022-10-23T07:38:21.544Z,618.75
2022-10-23T07:39:21.527Z,618.75
2022-10-23T07:40:21.515Z,753.75
2022-10-23T07:41:21.515Z,911.25
2022-10-23T07:42:21.495Z,843.75
2022-10-23T07:43:21.560Z,866.25
2022-10-23T07:44:23.201Z,961.88
2022-10-23T07:45:21.463Z,1023.75
2022-10-23T07:46:21.462Z,978.75
2022-10-23T07:47:21.438Z,956.25
2022-10-23T07:48:21.432Z,933.75
2022-10-23T07:49:21.421Z,928.12
2022-10-23T07:50:21.427Z,1029.38
2022-10-23T07:51:21.402Z,1186.88
2022-10-23T07:52:21.385Z,1248.75
2022-10-23T07:53:21.388Z,1153.12
2022-10-23T07:54:21.364Z,1136.25
2022-10-23T07:55:21.349Z,1254.38
2022-10-23T07:56:21.351Z,1293.75
2022-10-23T07:57:21.333Z,1198.12
2022-10-23T07:58:21.319Z,1029.38
2022-10-23T07:59:21.306Z,956.25
2022-10-23T08:00:21.330Z,922.50
2022-10-23T08:01:21.331Z,950.62
2022-10-23T08:02:21.321Z,956.25
2022-10-23T08:03:21.262Z,945.00
2022-10-23T08:04:21.276Z,961.88
2022-10-23T08:05:21.245Z,990.00
2022-10-23T08:06:21.262Z,1096.88
2022-10-23T08:07:21.218Z,1310.62
2022-10-23T08:08:21.208Z,1226.25
2022-10-23T08:09:21.196Z,1074.38
2022-10-23T08:10:21.189Z,832.50
2022-10-23T08:11:21.188Z,916.88
2022-10-23T08:12:21.170Z,973.12
2022-10-23T08:13:21.155Z,838.12
2022-10-23T08:14:21.149Z,967.50
2022-10-23T08:15:21.132Z,877.50
2022-10-23T08:16:21.140Z,720.00
2022-10-23T08:17:23.969Z,787.50
2022-10-23T08:18:22.104Z,855.00
2022-10-23T08:19:21.093Z,1046.25
2022-10-23T08:20:21.080Z,849.38
2022-10-23T08:21:21.084Z,826.88
2022-10-23T08:22:21.082Z,978.75
2022-10-23T08:23:21.047Z,1051.88
2022-10-23T08:24:21.035Z,1018.12
2022-10-23T08:25:24.872Z,1080.00
2022-10-23T08:26:21.012Z,1141.88
2022-10-23T08:27:21.012Z,1108.12
2022-10-23T08:28:20.990Z,1198.12
2022-10-23T08:29:20.990Z,1237.50
2022-10-23T08:30:20.969Z,708.75
2022-10-23T08:31:20.958Z,517.50
2022-10-23T08:32:20.980Z,793.12
2022-10-23T08:33:20.934Z,905.62
2022-10-23T08:34:20.928Z,877.50
2022-10-23T08:35:20.912Z,675.00
2022-10-23T08:36:20.913Z,669.38
2022-10-23T08:37:20.901Z,742.50
2022-10-23T08:38:20.897Z,950.62
2022-10-23T08:39:20.886Z,804.38
2022-10-23T08:40:20.858Z,506.25
2022-10-23T08:41:20.847Z,725.62
2022-10-23T08:42:20.911Z,1175.62
2022-10-23T08:43:20.853Z,1361.25
2022-10-23T08:44:20.817Z,1597.50
2022-10-23T08:45:20.843Z,1541.25
2022-10-23T08:46:20.793Z,1676.25
2022-10-23T08:47:20.828Z,1794.38
2022-10-23T08:48:20.768Z,1912.50
2022-10-23T08:49:20.759Z,1760.62
2022-10-23T08:50:20.797Z,1456.88
2022-10-23T08:51:20.738Z,1642.50
2022-10-23T08:52:20.756Z,1586.25
2022-10-23T08:53:20.717Z,1226.25
2022-10-23T08:54:20.752Z,1102.50
2022-10-23T08:55:20.695Z,1580.62
2022-10-23T08:56:20.775Z,1991.25
2022-10-23T08:57:20.686Z,2120.62
2022-10-23T08:58:20.661Z,2143.12
2022-10-23T08:59:20.657Z,2070.00
2022-10-23T09:00:20.736Z,2131.88
2022-10-23T09:01:20.795Z,2143.12
2022-10-23T09:02:20.695Z,2221.88
2022-10-23T09:03:20.615Z,2334.38
2022-10-23T09:04:20.597Z,2356.88
2022-10-23T09:05:20.591Z,2115.00
2022-10-23T09:06:20.576Z,1968.75
2022-10-23T09:07:20.590Z,2244.38
2022-10-23T09:08:20.557Z,2413.12
2022-10-23T09:09:20.546Z,2610.00
2022-10-23T09:10:20.661Z,2632.50
2022-10-23T09:11:20.524Z,2728.12
2022-10-23T09:12:20.522Z,2632.50
2022-10-23T09:13:20.505Z,2688.75
2022-10-23T09:14:20.493Z,2874.38
2022-10-23T09:15:20.483Z,2891.25
2022-10-23T09:16:20.471Z,2851.88
2022-10-23T09:17:20.474Z,2880.00
2022-10-23T09:18:20.452Z,2970.00
2022-10-23T09:19:20.443Z,2683.12
2022-10-23T09:20:20.472Z,3172.50
2022-10-23T09:21:20.420Z,3279.38
2022-10-23T09:22:20.420Z,2981.25
2022-10-23T09:23:20.401Z,2818.12
2022-10-23T09:24:20.391Z,3301.88
2022-10-23T09:25:20.384Z,3251.25
2022-10-23T09:26:20.388Z,3099.38
2022-10-23T09:27:20.368Z,3470.62
2022-10-23T09:28:20.347Z,3453.75
2022-10-23T09:29:20.337Z,3476.25
2022-10-23T09:30:20.330Z,3330.00
2022-10-23T09:31:20.318Z,3071.25
2022-10-23T09:32:20.314Z,2559.38
2022-10-23T09:33:20.330Z,2520.00
2022-10-23T09:34:20.289Z,3183.75
2022-10-23T09:35:20.278Z,2576.25
2022-10-23T09:36:20.268Z,3166.88
2022-10-23T09:37:21.326Z,3071.25
2022-10-23T09:38:20.246Z,3526.88
2022-10-23T09:39:20.269Z,3538.12
2022-10-23T09:40:20.224Z,3425.62
2022-10-23T09:41:20.216Z,3465.00
2022-10-23T09:42:20.231Z,3481.88
2022-10-23T09:43:20.209Z,3498.75
2022-10-23T09:44:20.232Z,3577.50
2022-10-23T09:45:20.176Z,3639.38
2022-10-23T09:46:20.165Z,3476.25
2022-10-23T09:47:20.179Z,3223.12
2022-10-23T09:48:20.143Z,3195.00
2022-10-23T09:49:20.142Z,3459.38
2022-10-23T09:50:20.129Z,3622.50
2022-10-23T09:51:20.128Z,3639.38
2022-10-23T09:52:20.108Z,3560.62
2022-10-23T09:53:20.096Z,3515.62
2022-10-23T09:54:20.108Z,3369.38
2022-10-23T09:55:20.079Z,3442.50
2022-10-23T09:56:23.619Z,3532.50
2022-10-23T09:57:20.060Z,3408.75
2022-10-23T09:58:20.080Z,3487.50
2022-10-23T09:59:20.038Z,3498.75
2022-10-23T10:00:20.039Z,3560.62
2022-10-23T10:01:20.181Z,3346.88
2022-10-23T10:02:20.080Z,3020.62
2022-10-23T10:03:20.040Z,2851.88
2022-10-23T10:04:20.009Z,2750.62
2022-10-23T10:05:19.981Z,2947.50
2022-10-23T10:06:19.990Z,3020.62
2022-10-23T10:07:19.960Z,3076.88
2022-10-23T10:08:19.956Z,3206.25
2022-10-23T10:09:19.943Z,3116.25
2022-10-23T10:10:19.931Z,3116.25
2022-10-23T10:11:19.943Z,3211.88
2022-10-23T10:12:19.913Z,3026.25
2022-10-23T10:13:19.904Z,2885.62
2022-10-23T10:14:19.961Z,2981.25
2022-10-23T10:15:19.896Z,3155.62
2022-10-23T10:16:19.898Z,3262.50
2022-10-23T10:17:19.881Z,3228.75
2022-10-23T10:18:19.872Z,1912.50
2022-10-23T10:19:19.891Z,511.88
2022-10-23T10:20:19.835Z,360.00
2022-10-23T10:21:19.845Z,315.00
2022-10-23T10:22:19.812Z,298.12
2022-10-23T10:23:19.804Z,292.50
2022-10-23T10:24:19.797Z,281.25
2022-10-23T10:25:19.810Z,270.00
2022-10-23T10:26:19.847Z,270.00
2022-10-23T10:27:19.764Z,264.38
2022-10-23T10:28:19.767Z,258.75
2022-10-23T10:29:19.756Z,258.75
2022-10-23T10:30:19.765Z,258.75
2022-10-23T10:31:19.742Z,253.12
2022-10-23T10:32:19.716Z,253.12
2022-10-23T10:33:19.702Z,258.75
2022-10-23T10:34:19.690Z,253.12
2022-10-23T10:35:19.679Z,253.12
2022-10-23T10:36:19.707Z,264.38
2022-10-23T10:37:19.660Z,270.00
2022-10-23T10:38:19.653Z,264.38
2022-10-23T10:39:19.649Z,253.12
2022-10-23T10:40:19.624Z,241.88
2022-10-23T10:41:19.632Z,236.25
2022-10-23T10:42:19.603Z,236.25
2022-10-23T10:43:19.594Z,230.62
2022-10-23T10:44:19.594Z,230.62
2022-10-23T10:45:19.571Z,230.62
2022-10-23T10:46:19.591Z,230.62
2022-10-23T10:47:21.204Z,230.62
2022-10-23T10:48:19.538Z,230.62
2022-10-23T10:49:19.528Z,225.00
2022-10-23T10:50:19.516Z,225.00
2022-10-23T10:51:19.516Z,225.00
2022-10-23T10:52:19.517Z,219.38
2022-10-23T10:53:19.484Z,213.75
2022-10-23T10:54:19.480Z,213.75
2022-10-23T10:55:19.466Z,208.12
2022-10-23T10:56:19.467Z,208.12
2022-10-23T10:57:19.447Z,213.75
2022-10-23T10:58:19.428Z,213.75
2022-10-23T10:59:19.421Z,213.75
2022-10-23T11:00:19.421Z,213.75
2022-10-23T11:01:19.610Z,213.75
2022-10-23T11:02:19.506Z,219.38
2022-10-23T11:03:19.436Z,225.00
2022-10-23T11:04:19.419Z,225.00
2022-10-23T11:05:19.365Z,230.62
2022-10-23T11:06:19.368Z,236.25
2022-10-23T11:07:19.335Z,247.50
2022-10-23T11:08:19.322Z,253.12
2022-10-23T11:09:20.910Z,258.75
2022-10-23T11:10:19.316Z,258.75
2022-10-23T11:11:19.316Z,258.75
2022-10-23T11:12:19.301Z,253.12
2022-10-23T11:13:19.274Z,258.75
2022-10-23T11:14:19.264Z,253.12
2022-10-23T11:15:19.296Z,258.75
2022-10-23T11:16:19.282Z,258.75
2022-10-23T11:17:19.234Z,264.38
2022-10-23T11:18:19.237Z,270.00
2022-10-23T11:19:19.221Z,270.00
2022-10-23T11:20:19.210Z,275.62
2022-10-23T11:21:19.199Z,270.00
2022-10-23T11:22:19.182Z,270.00
2022-10-23T11:23:19.170Z,270.00
2022-10-23T11:24:19.168Z,264.38
2022-10-23T11:25:19.212Z,258.75
2022-10-23T11:26:19.911Z,258.75
2022-10-23T11:27:19.144Z,258.75
2022-10-23T11:28:19.119Z,258.75
2022-10-23T11:29:19.177Z,253.12
2022-10-23T11:30:19.134Z,253.12
2022-10-23T11:31:19.085Z,253.12
2022-10-23T11:32:19.088Z,247.50
2022-10-23T11:33:19.102Z,241.88
2022-10-23T11:34:19.072Z,241.88
2022-10-23T11:35:19.058Z,236.25
2022-10-23T11:36:19.032Z,236.25
2022-10-23T11:37:19.023Z,225.00
2022-10-23T11:38:19.012Z,213.75
2022-10-23T11:39:19.006Z,208.12
2022-10-23T11:40:19.004Z,202.50
2022-10-23T11:41:21.161Z,196.88
2022-10-23T11:42:18.977Z,191.25
2022-10-23T11:43:18.961Z,185.62
2022-10-23T11:44:18.953Z,185.62
2022-10-23T11:45:18.963Z,185.62
2022-10-23T11:46:18.931Z,191.25
2022-10-23T11:47:18.917Z,191.25
2022-10-23T11:48:18.904Z,191.25
2022-10-23T11:49:18.903Z,196.88
2022-10-23T11:50:18.922Z,196.88
2022-10-23T11:51:18.879Z,196.88
2022-10-23T11:52:18.867Z,196.88
2022-10-23T11:53:19.365Z,191.25
2022-10-23T11:54:18.842Z,191.25
2022-10-23T11:55:18.846Z,185.62
2022-10-23T11:56:18.820Z,185.62
2022-10-23T11:57:18.842Z,191.25
2022-10-23T11:58:18.799Z,196.88
2022-10-23T11:59:18.793Z,196.88
2022-10-23T12:00:18.792Z,202.50
2022-10-23T12:01:18.819Z,202.50
2022-10-23T12:02:18.845Z,202.50
2022-10-23T12:03:18.777Z,202.50
2022-10-23T12:04:18.738Z,202.50
2022-10-23T12:05:18.740Z,208.12
2022-10-23T12:06:18.732Z,208.12
2022-10-23T12:07:18.709Z,208.12
2022-10-23T12:08:18.692Z,208.12
2022-10-23T12:09:18.682Z,202.50
2022-10-23T12:10:18.683Z,196.88
2022-10-23T12:11:18.665Z,191.25
2022-10-23T12:12:18.649Z,191.25
2022-10-23T12:13:18.654Z,180.00
2022-10-23T12:14:18.634Z,174.38
2022-10-23T12:15:18.635Z,168.75
2022-10-23T12:16:18.606Z,163.12
2022-10-23T12:17:18.600Z,163.12
2022-10-23T12:18:18.592Z,157.50
2022-10-23T12:19:18.638Z,157.50
2022-10-23T12:20:18.593Z,151.88
2022-10-23T12:21:18.555Z,151.88
2022-10-23T12:22:18.568Z,146.25
2022-10-23T12:23:18.535Z,146.25
2022-10-23T12:24:18.521Z,146.25
2022-10-23T12:25:18.647Z,146.25
2022-10-23T12:26:18.501Z,146.25
2022-10-23T12:27:18.488Z,146.25
2022-10-23T12:28:18.485Z,146.25
2022-10-23T12:29:18.469Z,146.25
2022-10-23T12:30:18.494Z,140.62
2022-10-23T12:31:18.452Z,140.62
2022-10-23T12:32:18.437Z,135.00
2022-10-23T12:33:18.430Z,135.00
2022-10-23T12:34:18.576Z,135.00
2022-10-23T12:35:18.441Z,135.00
2022-10-23T12:36:18.410Z,129.38
2022-10-23T12:37:18.385Z,135.00
2022-10-23T12:38:18.392Z,135.00
2022-10-23T12:39:26.304Z,135.00
2022-10-23T12:40:18.362Z,135.00
2022-10-23T12:41:18.338Z,140.62
2022-10-23T12:42:18.325Z,140.62
2022-10-23T12:43:18.319Z,146.25
2022-10-23T12:44:18.308Z,146.25
2022-10-23T12:45:18.344Z,146.25
2022-10-23T12:46:18.283Z,140.62
2022-10-23T12:47:18.275Z,140.62
2022-10-23T12:48:18.260Z,146.25
2022-10-23T12:49:18.253Z,146.25